地図

経路データ

SID SEASON NUMBER BASIN SUBBASIN NAME ISO_TIME NATURE LAT LON WMO_WIND WMO_PRES WMO_AGENCY TRACK_TYPE DIST2LAND LANDFALL IFLAG USA_AGENCY USA_ATCF_ID USA_LAT USA_LON USA_RECORD USA_STATUS USA_WIND USA_PRES USA_SSHS USA_R34_NE USA_R34_SE USA_R34_SW USA_R34_NW USA_R50_NE USA_R50_SE USA_R50_SW USA_R50_NW USA_R64_NE USA_R64_SE USA_R64_SW USA_R64_NW USA_POCI USA_ROCI USA_RMW USA_EYE TOKYO_LAT TOKYO_LON TOKYO_GRADE TOKYO_WIND TOKYO_PRES TOKYO_R50_DIR TOKYO_R50_LONG TOKYO_R50_SHORT TOKYO_R30_DIR TOKYO_R30_LONG TOKYO_R30_SHORT TOKYO_LAND CMA_LAT CMA_LON CMA_CAT CMA_WIND CMA_PRES HKO_LAT HKO_LON HKO_CAT HKO_WIND HKO_PRES NEWDELHI_LAT NEWDELHI_LON NEWDELHI_GRADE NEWDELHI_WIND NEWDELHI_PRES NEWDELHI_CI NEWDELHI_DP NEWDELHI_POCI REUNION_LAT REUNION_LON REUNION_TYPE REUNION_WIND REUNION_PRES REUNION_TNUM REUNION_CI REUNION_RMW REUNION_R34_NE REUNION_R34_SE REUNION_R34_SW REUNION_R34_NW REUNION_R50_NE REUNION_R50_SE REUNION_R50_SW REUNION_R50_NW REUNION_R64_NE REUNION_R64_SE REUNION_R64_SW REUNION_R64_NW BOM_LAT BOM_LON BOM_TYPE BOM_WIND BOM_PRES BOM_TNUM BOM_CI BOM_RMW BOM_R34_NE BOM_R34_SE BOM_R34_SW BOM_R34_NW BOM_R50_NE BOM_R50_SE BOM_R50_SW BOM_R50_NW BOM_R64_NE BOM_R64_SE BOM_R64_SW BOM_R64_NW BOM_ROCI BOM_POCI BOM_EYE BOM_POS_METHOD BOM_PRES_METHOD NADI_LAT NADI_LON NADI_CAT NADI_WIND NADI_PRES WELLINGTON_LAT WELLINGTON_LON WELLINGTON_WIND WELLINGTON_PRES DS824_LAT DS824_LON DS824_STAGE DS824_WIND DS824_PRES TD9636_LAT TD9636_LON TD9636_STAGE TD9636_WIND TD9636_PRES TD9635_LAT TD9635_LON TD9635_WIND TD9635_PRES TD9635_ROCI NEUMANN_LAT NEUMANN_LON NEUMANN_CLASS NEUMANN_WIND NEUMANN_PRES MLC_LAT MLC_LON MLC_CLASS MLC_WIND MLC_PRES USA_GUST BOM_GUST BOM_GUST_PER REUNION_GUST REUNION_GUST_PER USA_SEAHGT USA_SEARAD_NE USA_SEARAD_SE USA_SEARAD_SW USA_SEARAD_NW STORM_SPEED STORM_DIR
1961024S10057 1961 12 SI MM DORIS 1961-01-23 18:00:00 TS -10.2000 57.3000 main 865 865 O________OO___ jtwc_sh SH141961 -10.2000 57.3000 -1 -10.2000 57.3000 TC -10.2000 57.3000 7 8 82
1961024S10057 1961 12 SI MM DORIS 1961-01-23 21:00:00 TS -10.1460 57.6920 main 910 910 P________PP___ SH141961 -10.1526 57.6950 -1 -10.1526 57.6950 TC -10.1329 57.6861 7 8 82
1961024S10057 1961 12 SI MM DORIS 1961-01-24 00:00:00 TS -10.0908 58.0959 main 951 951 O________OP___ jtwc_sh SH141961 -10.1000 58.1000 -1 -10.1000 58.1000 TC -10.0725 58.0877 7 8 82
1961024S10057 1961 12 SI MM DORIS 1961-01-24 03:00:00 TS -10.0369 58.5252 main 995 995 P________PP___ SH141961 -10.0424 58.5275 -1 -10.0424 58.5275 TC -10.0258 58.5204 7 9 84
1961024S10057 1961 12 SI MM DORIS 1961-01-24 06:00:00 TS -10.0000 59.0000 reunion main 1047 1047 O____O___OO_O_ jtwc_sh SH141961 -10.0000 59.0000 -1 -10.0000 59.0000 99 9.90000 -10.0000 59.0000 TC 25 -10.0000 59.0000 7 -10.0000 59.0000 TC 25 10 87
1961024S10057 1961 12 SI MM DORIS 1961-01-24 09:00:00 TS -9.98438 59.5374 main 1099 1099 P____P___PP_P_ SH141961 -9.97748 59.5350 -1 -9.98014 59.5451 99 -9.97748 59.5350 TC 25 -10.0012 59.5344 7 -9.98264 59.5451 TC 25 11 90
1961024S10057 1961 12 SI MM DORIS 1961-01-24 12:00:00 TS -10.0073 60.1000 reunion main 1159 1158 O____O___OP_O_ jtwc_sh SH141961 -10.0000 60.1000 -1 -10.0000 60.1000 99 9.90000 -10.0000 60.1000 TC 25 -10.0328 60.1001 7 -10.0000 60.1000 TC 25 11 95
1961024S10057 1961 12 SI MM DORIS 1961-01-24 15:00:00 TS -10.0831 60.6651 main 1164 1163 P____P___PP_P_ SH141961 -10.0775 60.6650 -1 -10.0850 60.6649 99 -10.0775 60.6650 TC 25 -10.0980 60.6657 7 -10.0775 60.6650 TC 25 11 100
1961024S10057 1961 12 SI MM DORIS 1961-01-24 18:00:00 TS -10.2000 61.2000 reunion main 1169 1166 O____O___OO_O_ jtwc_sh SH141961 -10.2000 61.2000 -1 -10.2000 61.2000 99 9.90000 -10.2000 61.2000 TC 25 -10.2000 61.2000 7 -10.2000 61.2000 TC 25 10 104
1961024S10057 1961 12 SI MM DORIS 1961-01-24 21:00:00 TS -10.3217 61.6751 main 1177 1171 P____P___PP_P_ SH141961 -10.3349 61.6725 -1 -10.2774 61.6726 99 -10.3349 61.6725 TC 25 -10.3266 61.6852 7 -10.3349 61.6725 TC 25 9 107
1961024S10057 1961 12 SI MM DORIS 1961-01-25 00:00:00 TS -10.4780 62.1065 reunion main 1173 1171 O____O___OP_O_ jtwc_sh SH141961 -10.5000 62.1000 -1 -10.4000 62.1000 99 9.90000 -10.5000 62.1000 TC 25 -10.4898 62.1324 7 -10.5000 62.1000 TC 25 9 113
1961024S10057 1961 12 SI MM DORIS 1961-01-25 03:00:00 TS -10.6716 62.5287 main 1171 1165 P____P___PP_P_ SH141961 -10.6850 62.5225 -1 -10.6200 62.5299 99 -10.6850 62.5225 TC 25 -10.6830 62.5384 7 -10.6850 62.5300 TC 25 9 118
1961024S10057 1961 12 SI MM DORIS 1961-01-25 06:00:00 TS -10.9000 62.9000 reunion main 1170 1161 O____O___OO_O_ jtwc_sh SH141961 -10.9000 62.9000 -1 -10.9000 62.9000 99 9.90000 -10.9000 62.9000 TC 25 -10.9000 62.9000 7 -10.9000 62.9000 TC 25 8 127
1961024S10057 1961 12 SI MM DORIS 1961-01-25 09:00:00 TS -11.1631 63.1905 main 1156 1148 P____P___PP_P_ SH141961 -11.1424 63.2225 -1 -11.2074 63.1651 99 -11.1424 63.2225 TC 25 -11.1806 63.1774 7 -11.1424 63.1651 TC 25 8 135
1961024S10057 1961 12 SI MM DORIS 1961-01-25 12:00:00 TS -11.4348 63.4439 reunion main 1148 1131 O____O___OP_O_ jtwc_sh SH141961 -11.4000 63.5000 -1 -11.5000 63.4000 99 9.90000 -11.4000 63.5000 TC 25 -11.4740 63.4197 7 -11.4000 63.4000 TC 25 7 139
1961024S10057 1961 12 SI MM DORIS 1961-01-25 15:00:00 TS -11.7164 63.6794 main 1137 1128 P____P___PP_P_ SH141961 -11.6948 63.7050 -1 -11.7524 63.6625 99 -11.6948 63.7050 TC 25 -11.7305 63.6772 7 -11.7098 63.6473 TC 25 7 131
1961024S10057 1961 12 SI MM DORIS 1961-01-25 18:00:00 TS -11.9000 64.0000 reunion main 1137 1137 O____O___OO_O_ jtwc_sh SH141961 -11.9000 64.0000 -1 -11.9000 64.0000 99 9.90000 -11.9000 64.0000 TC 25 -11.9000 64.0000 7 -11.9000 64.0000 TC 25 9 100
1961024S10057 1961 12 SI MM DORIS 1961-01-25 21:00:00 TS -11.8726 64.5432 main 1170 1170 P____P___PP_P_ SH141961 -11.9028 64.5702 -1 -11.8950 64.4626 99 -11.9028 64.5702 TC 25 -11.8748 64.5353 7 -11.7877 64.5779 TC 25 11 83
1961024S10057 1961 12 SI MM DORIS 1961-01-26 00:00:00 TS -11.7533 65.1453 reunion main 1219 1219 O____O___OP_O_ jtwc_sh SH141961 -11.8000 65.2000 -1 -11.8000 65.0000 99 9.90000 -11.8000 65.2000 TC 25 -11.7664 65.1263 7 -11.6000 65.2000 TC 25 12 78
1961024S10057 1961 12 SI MM DORIS 1961-01-26 03:00:00 TS -11.6385 65.6988 main 1279 1279 P____P___PP_P_ SH141961 -11.6625 65.7326 -1 -11.6702 65.6102 99 -11.6625 65.7326 TC 30 -11.6497 65.6790 7 -11.5475 65.7399 TC 30 9 81
1961024S10057 1961 12 SI MM DORIS 1961-01-26 06:00:00 TS -11.6000 66.1000 reunion main 1308 1307 O____O___OO_O_ jtwc_sh SH141961 -11.6000 66.1000 -1 -11.6000 66.1000 2 9.90000 -11.6000 66.1000 TC 35 -11.6000 66.1000 2 -11.6000 66.1000 TC 35 5 101
1961024S10057 1961 12 SI MM DORIS 1961-01-26 09:00:00 TS -11.7411 66.2299 main 1307 1282 P____P___PP_P_ SH141961 -11.7549 66.2175 -1 -11.6973 66.2899 2 -11.7549 66.2175 TC 35 -11.7285 66.2645 2 -11.7699 66.1601 TC 35 4 162
1961024S10057 1961 12 SI MM DORIS 1961-01-26 12:00:00 TS -11.9664 66.2185 reunion main 1282 1266 O____O___OP_O_ jtwc_sh SH141961 -12.0000 66.2000 -1 -11.9000 66.3000 2 9.90000 -12.0000 66.2000 TC 35 -11.9319 66.2925 2 -12.0000 66.1000 TC 35 5 182
1961024S10057 1961 12 SI MM DORIS 1961-01-26 15:00:00 TS -12.1884 66.2113 main 1266 1250 P____P___PP_P_ SH141961 -12.2075 66.2000 -1 -12.1500 66.2651 2 -12.2075 66.2000 TC 35 -12.1693 66.2491 2 -12.2075 66.1425 TC 35 4 0
1961024S10057 1961 12 SI MM DORIS 1961-01-26 18:00:00 TS -12.4000 66.2000 reunion main 1250 1235 O____O___OO_O_ jtwc_sh SH141961 -12.4000 66.2000 -1 -12.4000 66.2000 2 9.90000 -12.4000 66.2000 TC 35 -12.4000 66.2000 2 -12.4000 66.2000 TC 35 4 176
1961024S10057 1961 12 SI MM DORIS 1961-01-26 21:00:00 TS -12.5587 66.2286 main 1235 1235 P____P___PP_P_ SH141961 -12.5575 66.2425 -1 -12.5650 66.1775 2 -12.5575 66.2425 TC 35 -12.5562 66.2307 2 -12.5575 66.2500 TC 35 3 168
1961024S10057 1961 12 SI MM DORIS 1961-01-27 00:00:00 TS -12.7000 66.2740 reunion main 1235 1227 O____O___OP_O_ jtwc_sh SH141961 -12.7000 66.3000 -1 -12.7000 66.2000 2 9.90000 -12.7000 66.3000 TC 35 -12.7000 66.2701 2 -12.7000 66.3000 TC 35 3 160
1961024S10057 1961 12 SI MM DORIS 1961-01-27 03:00:00 TS -12.8427 66.3274 main 1227 1220 P____P___PP_P_ SH141961 -12.8425 66.3425 -1 -12.8425 66.2850 2 -12.8425 66.3425 TC 35 -12.8437 66.3245 2 -12.8425 66.3425 TC 35 3 158
1961024S10057 1961 12 SI MM DORIS 1961-01-27 06:00:00 TS -13.0000 66.4000 reunion main 1220 1213 O____O___OO_O_ jtwc_sh SH141961 -13.0000 66.4000 -1 -13.0000 66.4000 2 9.90000 -13.0000 66.4000 TC 35 -13.0000 66.4000 2 -13.0000 66.4000 TC 35 4 156
1961024S10057 1961 12 SI MM DORIS 1961-01-27 09:00:00 TS -13.1928 66.4910 main 1214 1206 P____P___PP_P_ SH141961 -13.1925 66.4850 -1 -13.1925 66.4925 2 -13.1925 66.4850 TC 35 -13.1938 66.5074 2 -13.1925 66.4850 TC 35 5 153
1961024S10057 1961 12 SI MM DORIS 1961-01-27 12:00:00 TS -13.4000 66.6070 reunion main 1207 1200 O____O___OP_O_ jtwc_sh SH141961 -13.4000 66.6000 -1 -13.4000 66.6000 2 9.90000 -13.4000 66.6000 TC 35 -13.4001 66.6349 2 -13.4000 66.6000 TC 35 5 148
1961024S10057 1961 12 SI MM DORIS 1961-01-27 15:00:00 TS -13.6073 66.7540 main 1210 1203 P____P___PP_P_ SH141961 -13.6075 66.7500 -1 -13.6075 66.7500 2 -13.6075 66.7500 TC 35 -13.6063 66.7699 2 -13.6075 66.7500 TC 37 5 145
1961024S10057 1961 12 SI MM DORIS 1961-01-27 18:00:00 TS -13.8000 66.9000 reunion main 1205 1198 O____O___OO_O_ jtwc_sh SH141961 -13.8000 66.9000 -1 -13.8000 66.9000 2 9.90000 -13.8000 66.9000 TC 35 -13.8000 66.9000 2 -13.8000 66.9000 TC 40 4 145
1961024S10057 1961 12 SI MM DORIS 1961-01-27 21:00:00 TS -13.9540 67.0035 main 1201 1201 P____P___PP_P_ SH141961 -13.9575 67.0075 -1 -13.9575 67.0075 2 -13.9575 67.0075 TC 35 -13.9399 66.9872 2 -13.9575 67.0075 TC 45 4 147
1961024S10057 1961 12 SI MM DORIS 1961-01-28 00:00:00 TS -14.0940 67.0941 reunion main 1203 1196 O____O___OP_O_ jtwc_sh SH141961 -14.1000 67.1000 -1 -14.1000 67.1000 99 9.90000 -14.1000 67.1000 TC 35 -14.0698 67.0705 2 -14.1000 67.1000 TC 50 3 148
1961024S10057 1961 12 SI MM DORIS 1961-01-28 03:00:00 TS -14.2264 67.1803 main 1205 1199 P____P___PP_P_ SH141961 -14.2275 67.1851 -1 -14.2350 67.1851 99 -14.2275 67.1851 TC 50 -14.2149 67.1685 2 -14.2275 67.1776 TC 55 4 147
1961024S10057 1961 12 SI MM DORIS 1961-01-28 06:00:00 TS -14.4000 67.3000 reunion main 1202 1196 O____O___OO_O_ jtwc_sh SH141961 -14.4000 67.3000 -1 -14.4000 67.3000 4 9.90000 -14.4000 67.3000 TC 65 -14.4000 67.3000 4 -14.4000 67.3000 TC 60 5 145
1961024S10057 1961 12 SI MM DORIS 1961-01-28 09:00:00 TS -14.6627 67.4937 main 1202 1200 P____P___PP_P_ SH141961 -14.6775 67.4775 -1 -14.6200 67.4775 4 -14.6775 67.4775 TC 65 -14.6611 67.5009 4 -14.6776 67.5349 TC 62 7 144
1961024S10057 1961 12 SI MM DORIS 1961-01-28 12:00:00 TS -14.9725 67.7269 reunion main 1203 1203 O____O___OP_O_ jtwc_sh SH141961 -15.0000 67.7000 -1 -14.9000 67.7000 4 9.90000 -15.0000 67.7000 TC 65 -14.9627 67.7346 4 -15.0000 67.8000 TC 65 8 143
1961024S10057 1961 12 SI MM DORIS 1961-01-28 15:00:00 TS -15.2866 67.9727 main 1215 1210 P____P___PP_P_ SH141961 -15.3000 67.9575 -1 -15.2425 67.9574 4 -15.3000 67.9575 TC 65 -15.2830 67.9760 4 -15.3075 68.0150 TC 67 8 144
1961024S10057 1961 12 SI MM DORIS 1961-01-28 18:00:00 TS -15.6000 68.2000 reunion main 1219 1213 O____O___OO_O_ jtwc_sh SH141961 -15.6000 68.2000 -1 -15.6000 68.2000 4 9.90000 -15.6000 68.2000 TC 65 -15.6000 68.2000 4 -15.6000 68.2000 TC 70 7 148
1961024S10057 1961 12 SI MM DORIS 1961-01-28 21:00:00 TS -15.8948 68.3665 main 1223 1213 P____P___PP_P_ SH141961 -15.9075 68.3651 -1 -15.9149 68.3651 4 -15.9075 68.3651 TC 65 -15.8943 68.3798 4 -15.8500 68.3576 TC 72 7 153
1961024S10057 1961 12 SI MM DORIS 1961-01-29 00:00:00 TS -16.1760 68.5075 reunion main 1219 1214 O____O___OP_O_ jtwc_sh SH141961 -16.2000 68.5000 -1 -16.2000 68.5000 4 9.90000 -16.2000 68.5000 TC 65 -16.1799 68.5377 4 -16.1000 68.5000 TC 75 6 153
1961024S10057 1961 12 SI MM DORIS 1961-01-29 03:00:00 TS -16.4506 68.6613 main 1225 1221 P____P___PP_P_ SH141961 -16.4650 68.6575 -1 -16.4650 68.6575 4 -16.4650 68.6575 TC 65 -16.4506 68.6767 4 -16.4075 68.6575 TC 77 6 152
1961024S10057 1961 12 SI MM DORIS 1961-01-29 06:00:00 TS -16.7000 68.8000 reunion main 1227 1223 O____O___OO_O_ jtwc_sh SH141961 -16.7000 68.8000 -1 -16.7000 68.8000 4 9.90000 -16.7000 68.8000 TC 65 -16.7000 68.8000 4 -16.7000 68.8000 TC 80 5 153
1961024S10057 1961 12 SI MM DORIS 1961-01-29 09:00:00 TS -16.9118 68.9082 main 1229 1226 P____P___PP_P_ SH141961 -16.9075 68.9076 -1 -16.9075 68.9076 4 -16.9075 68.9076 TC 65 -16.9215 68.9106 4 -16.9150 68.9076 TC 77 5 154
1961024S10057 1961 12 SI MM DORIS 1961-01-29 12:00:00 TS -17.1045 69.0016 reunion main 1232 1228 O____O___OP_O_ jtwc_sh SH141961 -17.1000 69.0000 -1 -17.1000 69.0000 4 9.90000 -17.1000 69.0000 TC 65 -17.1224 69.0078 4 -17.1000 69.0000 TC 75 4 155
1961024S10057 1961 12 SI MM DORIS 1961-01-29 15:00:00 TS -17.3024 69.1002 main 1235 1232 P____P___PP_P_ SH141961 -17.3000 69.1000 -1 -17.3000 69.1000 4 -17.3000 69.1000 TC 65 -17.3121 69.1012 4 -17.3000 69.1000 TC 72 4 154
1961024S10057 1961 12 SI MM DORIS 1961-01-29 18:00:00 TS -17.5000 69.2000 reunion main 1239 1236 O____O___OO_O_ jtwc_sh SH141961 -17.5000 69.2000 -1 -17.5000 69.2000 4 9.90000 -17.5000 69.2000 TC 65 -17.5000 69.2000 4 -17.5000 69.2000 TC 70 4 155
1961024S10057 1961 12 SI MM DORIS 1961-01-29 21:00:00 TS -17.6992 69.2968 main 1243 1240 P____P___PP_P_ SH141961 -17.7000 69.2925 -1 -17.7000 69.2925 4 -17.7000 69.2925 TC 65 -17.6959 69.3139 4 -17.7000 69.2925 TC 70 4 154
1961024S10057 1961 12 SI MM DORIS 1961-01-30 00:00:00 TS -17.8985 69.4070 reunion main 1247 1245 O____O___OP_O_ jtwc_sh SH141961 -17.9000 69.4000 -1 -17.9000 69.4000 4 9.90000 -17.9000 69.4000 TC 65 -17.8925 69.4352 4 -17.9000 69.4000 TC 70 5 149
1961024S10057 1961 12 SI MM DORIS 1961-01-30 03:00:00 TS -18.0971 69.5468 main 1252 1252 P____P___PP_P_ SH141961 -18.1000 69.5425 -1 -18.1000 69.5425 4 -18.1000 69.5425 TC 65 -18.0928 69.5639 4 -18.0925 69.5425 TC 67 5 145
1961024S10057 1961 12 SI MM DORIS 1961-01-30 06:00:00 TS -18.3000 69.7000 reunion main 1268 1266 O____O___OO_O_ jtwc_sh SH141961 -18.3000 69.7000 -1 -18.3000 69.7000 4 9.90000 -18.3000 69.7000 TC 65 -18.3000 69.7000 4 -18.3000 69.7000 TC 65 5 145
1961024S10057 1961 12 SI MM DORIS 1961-01-30 09:00:00 TS -18.5091 69.8486 main 1274 1274 P____P___PP_P_ SH141961 -18.4925 69.8501 -1 -18.4925 69.8501 4 -18.4925 69.8501 TC 65 -18.5178 69.8429 4 -18.5500 69.8500 TC 65 5 147
1961024S10057 1961 12 SI MM DORIS 1961-01-30 12:00:00 TS -18.7285 69.9985 reunion main 1290 1288 O____O___OP_O_ jtwc_sh SH141961 -18.7000 70.0000 -1 -18.7000 70.0000 4 9.90000 -18.7000 70.0000 TC 65 -18.7425 69.9926 4 -18.8000 70.0000 TC 65 5 148
1961024S10057 1961 12 SI MM DORIS 1961-01-30 15:00:00 TS -18.9612 70.1492 main 1295 1295 P____P___PP_P_ SH141961 -18.9425 70.1500 -1 -18.9500 70.1500 4 -18.9425 70.1500 TC 65 -18.9709 70.1460 4 -19.0000 70.1501 TC 65 6 149
1961024S10057 1961 12 SI MM DORIS 1961-01-30 18:00:00 TS -19.2000 70.3000 reunion main 1313 1312 O____O___OO_O_ jtwc_sh SH141961 -19.2000 70.3000 -1 -19.2000 70.3000 4 9.90000 -19.2000 70.3000 TC 65 -19.2000 70.3000 4 -19.2000 70.3000 TC 65 6 149
1961024S10057 1961 12 SI MM DORIS 1961-01-30 21:00:00 TS -19.4404 70.4508 main 1331 1329 P____P___PP_P_ SH141961 -19.4575 70.4500 -1 -19.4000 70.4501 4 -19.4575 70.4500 TC 65 -19.4372 70.4541 4 -19.4500 70.4500 TC 65 6 149
1961024S10057 1961 12 SI MM DORIS 1961-01-31 00:00:00 TS -19.6745 70.6015 reunion main 1338 1338 O____O___OP_O_ jtwc_sh SH141961 -19.7000 70.6000 -1 -19.6000 70.6000 4 9.90000 -19.7000 70.6000 TC 65 -19.6725 70.6075 4 -19.7000 70.6000 TC 65 5 148
1961024S10057 1961 12 SI MM DORIS 1961-01-31 03:00:00 TS -19.8998 70.7529 main 1357 1357 P____P___PP_P_ SH141961 -19.9150 70.7500 -1 -19.8575 70.7500 4 -19.9150 70.7500 TC 65 -19.8966 70.7572 4 -19.9150 70.7575 TC 62 5 147
1961024S10057 1961 12 SI MM DORIS 1961-01-31 06:00:00 TS -20.1000 70.9000 reunion main 1366 1366 O____O___OO_O_ jtwc_sh SH141961 -20.1000 70.9000 -1 -20.1000 70.9000 4 9.90000 -20.1000 70.9000 TC 65 -20.1000 70.9000 4 -20.1000 70.9000 TC 60 5 143
1961024S10057 1961 12 SI MM DORIS 1961-01-31 09:00:00 TS -20.2618 71.0410 main 1376 1376 P____P___PP_P_ SH141961 -20.2575 71.0575 -1 -20.2650 71.0575 4 -20.2575 71.0575 TC 65 -20.2715 71.0324 4 -20.2575 71.0001 TC 60 4 140
1961024S10057 1961 12 SI MM DORIS 1961-01-31 12:00:00 TS -20.4045 71.1715 reunion main 1396 1396 O____O___OP_O_ jtwc_sh SH141961 -20.4000 71.2000 -1 -20.4000 71.2000 4 9.90000 -20.4000 71.2000 TC 65 -20.4224 71.1578 4 -20.4000 71.1000 TC 60 4 141
1961024S10057 1961 12 SI MM DORIS 1961-01-31 15:00:00 TS -20.5524 71.2904 main 1406 1406 P____P___PP_P_ SH141961 -20.5500 71.3075 -1 -20.5500 71.3075 4 -20.5500 71.3075 TC 65 -20.5621 71.2792 4 -20.5500 71.2500 TC 57 4 144
1961024S10057 1961 12 SI MM DORIS 1961-01-31 18:00:00 TS -20.7000 71.4000 reunion main 1416 1416 O____O___OO_O_ jtwc_sh SH141961 -20.7000 71.4000 -1 -20.7000 71.4000 4 9.90000 -20.7000 71.4000 TC 65 -20.7000 71.4000 4 -20.7000 71.4000 TC 55 4 147
1961024S10057 1961 12 SI MM DORIS 1961-01-31 21:00:00 TS -20.8459 71.4958 main 1426 1426 P____P___PP_P_ SH141961 -20.8500 71.4925 -1 -20.8500 71.4925 4 -20.8500 71.4925 TC 65 -20.8295 71.5011 4 -20.8500 71.5001 TC 52 3 147
1961024S10057 1961 12 SI MM DORIS 1961-02-01 00:00:00 TS -20.9924 71.6012 reunion main 1437 1437 O____O___OP_O_ jtwc_sh SH141961 -21.0000 71.6000 -1 -21.0000 71.6000 4 9.90000 -21.0000 71.6000 TC 65 -20.9622 71.6058 4 -21.0000 71.6000 TC 50 4 142
1961024S10057 1961 12 SI MM DORIS 1961-02-01 03:00:00 TS -21.1292 71.7301 main 1447 1447 P____P___PP_P_ SH141961 -21.1350 71.7276 -1 -21.1350 71.7351 4 -21.1350 71.7276 TC 65 -21.1138 71.7325 4 -21.1275 71.7277 TC 47 4 138
1961024S10057 1961 12 SI MM DORIS 1961-02-01 06:00:00 TS -21.3000 71.9000 reunion main 1469 1469 O____O___OO_O_ jtwc_sh SH141961 -21.3000 71.9000 -1 -21.3000 71.9000 4 9.90000 -21.3000 71.9000 TC 65 -21.3000 71.9000 4 -21.3000 71.9000 TC 45 5 139
1961024S10057 1961 12 SI MM DORIS 1961-02-01 09:00:00 TS -21.5421 72.1152 main 1490 1490 P____P___PP_P_ SH141961 -21.5275 72.1275 -1 -21.5274 72.0702 4 -21.5275 72.1275 TC 65 -21.5432 72.1236 4 -21.5850 72.1274 TC 42 7 140
1961024S10057 1961 12 SI MM DORIS 1961-02-01 12:00:00 TS -21.8240 72.3780 reunion main 1523 1523 O____O___OP_O_ jtwc_sh SH141961 -21.8000 72.4000 -1 -21.8000 72.3000 4 9.90000 -21.8000 72.4000 TC 65 -21.8200 72.3898 4 -21.9000 72.4000 TC 40 8 138
1961024S10057 1961 12 SI MM DORIS 1961-02-01 15:00:00 TS -22.1139 72.6797 main 1556 1556 P____P___PP_P_ SH141961 -22.1000 72.6925 -1 -22.1001 72.6349 4 -22.1000 72.6925 TC 65 -22.1119 72.6862 4 -22.1575 72.6926 TC 37 8 135
1961024S10057 1961 12 SI MM DORIS 1961-02-01 18:00:00 TS -22.4000 73.0000 reunion main 1590 1590 O____O___OO_O_ jtwc_sh SH141961 -22.4000 73.0000 -1 -22.4000 73.0000 4 9.90000 -22.4000 73.0000 TC 65 -22.4000 73.0000 4 -22.4000 73.0000 TC 35 8 134
1961024S10057 1961 12 SI MM DORIS 1961-02-01 21:00:00 TS -22.6584 73.2997 main 1624 1624 P____P___PP_P_ SH141961 -22.6574 73.2927 -1 -22.6574 73.3002 4 -22.6574 73.2927 TC 50 -22.6699 73.3204 4 -22.6499 73.2926 TC 32 8 132
1961024S10057 1961 12 SI MM DORIS 1961-02-02 00:00:00 TS -22.9046 73.6089 reunion main 1657 1657 O____O___OP_O_ jtwc_sh SH141961 -22.9000 73.6000 -1 -22.9000 73.6000 99 9.90000 -22.9000 73.6000 TC 35 -22.9229 73.6444 4 -22.9000 73.6000 TC 30 8 130
1961024S10057 1961 12 SI MM DORIS 1961-02-02 03:00:00 TS -23.1516 73.9455 main 1692 1692 P____P___PP_P_ SH141961 -23.1477 73.9397 -1 -23.1477 73.9371 99 -23.1477 73.9397 TC 30 -23.1645 73.9712 4 -23.1502 73.9397 TC 27 8 128
1961024S10057 1961 12 SI MM DORIS 1961-02-02 06:00:00 TS -23.4000 74.3000 reunion main 1736 O____O___OO_O_ jtwc_sh SH141961 -23.4000 74.3000 -1 -23.4000 74.3000 99 9.90000 -23.4000 74.3000 TC 25 -23.4000 74.3000 7 -23.4000 74.3000 TC 25 8 127

IBTrACS Databaseについて

本データベースは、米国NOAAが公開する1842年以降の世界の熱帯低気圧のベストトラックデータアーカイブInternational Best Track Archive for Climate Stewardship (IBTrACS)を、ウェブで閲覧しやすい形式に変換したものです。

最終更新日:2021-10-25